sensor_id;sensor_type;location;lat;lon;timestamp;pressure;altitude;pressure_sealevel;temperature
62107;BMP280;48087;32.600;-97.100;2023-03-01T00:04:00;;;;26.888620000000003
62107;BMP280;48087;32.600;-97.100;2023-03-01T00:09:05;;;;26.333070000000003
62107;BMP280;48087;32.600;-97.100;2023-03-01T00:14:08;;;;25.833075
62107;BMP280;48087;32.600;-97.100;2023-03-01T00:19:13;;;;25.388635
62107;BMP280;48087;32.600;-97.100;2023-03-01T00:24:16;;;;24.944195000000004
62107;BMP280;48087;32.600;-97.100;2023-03-01T00:29:21;;;;24.499754999999997
62107;BMP280;48087;32.600;-97.100;2023-03-01T00:34:24;;;;24.055314999999997
62107;BMP280;48087;32.600;-97.100;2023-03-01T00:39:28;;;;23.88865
62107;BMP280;48087;32.600;-97.100;2023-03-01T00:44:32;;;;23.610875
62107;BMP280;48087;32.600;-97.100;2023-03-01T00:49:37;;;;23.388654999999996
62107;BMP280;48087;32.600;-97.100;2023-03-01T00:54:55;;;;22.99977
62107;BMP280;48087;32.600;-97.100;2023-03-01T01:00:00;;;;22.833104999999996
62107;BMP280;48087;32.600;-97.100;2023-03-01T01:05:04;;;;22.666439999999998
62107;BMP280;48087;32.600;-97.100;2023-03-01T01:10:09;;;;22.721995000000003
62107;BMP280;48087;32.600;-97.100;2023-03-01T01:15:12;;;;22.499775
62107;BMP280;48087;32.600;-97.100;2023-03-01T01:20:17;;;;22.222
62107;BMP280;48087;32.600;-97.100;2023-03-01T01:25:20;;;;22.110889999999998
62107;BMP280;48087;32.600;-97.100;2023-03-01T01:30:24;;;;22.110889999999998
62107;BMP280;48087;32.600;-97.100;2023-03-01T01:35:28;;;;22.222
62107;BMP280;48087;32.600;-97.100;2023-03-01T01:40:33;;;;22.222
62107;BMP280;48087;32.600;-97.100;2023-03-01T01:45:35;;;;22.222
62107;BMP280;48087;32.600;-97.100;2023-03-01T01:50:40;;;;22.110889999999998
62107;BMP280;48087;32.600;-97.100;2023-03-01T01:55:44;;;;21.88867
62107;BMP280;48087;32.600;-97.100;2023-03-01T02:00:49;;;;21.722004999999996
62107;BMP280;48087;32.600;-97.100;2023-03-01T02:05:52;;;;21.610895000000003
62107;BMP280;48087;32.600;-97.100;2023-03-01T02:10:56;;;;21.444229999999997
62107;BMP280;48087;32.600;-97.100;2023-03-01T02:16:02;;;;21.33312
62107;BMP280;48087;32.600;-97.100;2023-03-01T02:21:10;;;;21.22201
62107;BMP280;48087;32.600;-97.100;2023-03-01T02:26:08;;;;21.22201
62107;BMP280;48087;32.600;-97.100;2023-03-01T02:31:14;;;;21.33312
62107;BMP280;48087;32.600;-97.100;2023-03-01T02:36:16;;;;21.610895000000003
62107;BMP280;48087;32.600;-97.100;2023-03-01T02:41:20;;;;21.77756
62107;BMP280;48087;32.600;-97.100;2023-03-01T02:46:24;;;;21.944225
62107;BMP280;48087;32.600;-97.100;2023-03-01T02:51:38;;;;22.33311
62107;BMP280;48087;32.600;-97.100;2023-03-01T02:56:31;;;;22.499775
62107;BMP280;48087;32.600;-97.100;2023-03-01T03:01:35;;;;22.555329999999998
62107;BMP280;48087;32.600;-97.100;2023-03-01T03:06:39;;;;22.388665
62107;BMP280;48087;32.600;-97.100;2023-03-01T03:11:44;;;;22.222
62107;BMP280;48087;32.600;-97.100;2023-03-01T03:16:48;;;;22.110889999999998
62107;BMP280;48087;32.600;-97.100;2023-03-01T03:21:52;;;;21.833115
62107;BMP280;48087;32.600;-97.100;2023-03-01T03:26:55;;;;21.66645
62107;BMP280;48087;32.600;-97.100;2023-03-01T03:32:00;;;;21.610895000000003
62107;BMP280;48087;32.600;-97.100;2023-03-01T03:37:03;;;;21.499785000000003
62107;BMP280;48087;32.600;-97.100;2023-03-01T03:42:08;;;;21.388675
62107;BMP280;48087;32.600;-97.100;2023-03-01T03:47:11;;;;21.277565
62107;BMP280;48087;32.600;-97.100;2023-03-01T03:52:16;;;;21.166454999999996
62107;BMP280;48087;32.600;-97.100;2023-03-01T03:57:19;;;;21.1109
62107;BMP280;48087;32.600;-97.100;2023-03-01T04:02:24;;;;20.999789999999997
62107;BMP280;48087;32.600;-97.100;2023-03-01T04:07:27;;;;20.833125
62107;BMP280;48087;32.600;-97.100;2023-03-01T04:12:32;;;;20.777570000000004
62107;BMP280;48087;32.600;-97.100;2023-03-01T04:17:35;;;;20.610904999999995
62107;BMP280;48087;32.600;-97.100;2023-03-01T04:22:40;;;;20.55535
62107;BMP280;48087;32.600;-97.100;2023-03-01T04:27:43;;;;20.444239999999997
62107;BMP280;48087;32.600;-97.100;2023-03-01T04:32:48;;;;20.333129999999997
62107;BMP280;48087;32.600;-97.100;2023-03-01T04:37:50;;;;20.388685000000002
62107;BMP280;48087;32.600;-97.100;2023-03-01T04:42:56;;;;20.277575
62107;BMP280;48087;32.600;-97.100;2023-03-01T04:47:59;;;;20.277575
62107;BMP280;48087;32.600;-97.100;2023-03-01T04:53:04;;;;20.277575
62107;BMP280;48087;32.600;-97.100;2023-03-01T04:58:07;;;;20.277575
62107;BMP280;48087;32.600;-97.100;2023-03-01T05:03:12;;;;20.222020000000004
62107;BMP280;48087;32.600;-97.100;2023-03-01T05:08:15;;;;20.222020000000004
62107;BMP280;48087;32.600;-97.100;2023-03-01T05:13:20;;;;20.166465
62107;BMP280;48087;32.600;-97.100;2023-03-01T05:18:23;;;;20.055354999999995
62107;BMP280;48087;32.600;-97.100;2023-03-01T05:23:28;;;;19.9998
62107;BMP280;48087;32.600;-97.100;2023-03-01T05:28:30;;;;19.944245000000002
62107;BMP280;48087;32.600;-97.100;2023-03-01T05:33:36;;;;19.833135000000002
62107;BMP280;48087;32.600;-97.100;2023-03-01T05:38:38;;;;19.944245000000002
62107;BMP280;48087;32.600;-97.100;2023-03-01T05:43:44;;;;19.888689999999997
62107;BMP280;48087;32.600;-97.100;2023-03-01T05:48:47;;;;19.833135000000002
62107;BMP280;48087;32.600;-97.100;2023-03-01T05:53:52;;;;19.888689999999997
62107;BMP280;48087;32.600;-97.100;2023-03-01T05:58:54;;;;19.888689999999997
62107;BMP280;48087;32.600;-97.100;2023-03-01T06:04:00;;;;19.944245000000002
62107;BMP280;48087;32.600;-97.100;2023-03-01T06:09:03;;;;19.944245000000002
62107;BMP280;48087;32.600;-97.100;2023-03-01T06:14:08;;;;19.9998
62107;BMP280;48087;32.600;-97.100;2023-03-01T06:19:10;;;;20.222020000000004
62107;BMP280;48087;32.600;-97.100;2023-03-01T06:24:15;;;;20.277575
62107;BMP280;48087;32.600;-97.100;2023-03-01T06:29:18;;;;20.499795000000002
62107;BMP280;48087;32.600;-97.100;2023-03-01T06:34:23;;;;20.499795000000002
62107;BMP280;48087;32.600;-97.100;2023-03-01T06:39:27;;;;20.610904999999995
62107;BMP280;48087;32.600;-97.100;2023-03-01T06:44:32;;;;20.610904999999995
62107;BMP280;48087;32.600;-97.100;2023-03-01T06:49:34;;;;20.722015
62107;BMP280;48087;32.600;-97.100;2023-03-01T06:54:39;;;;20.777570000000004
62107;BMP280;48087;32.600;-97.100;2023-03-01T06:59:42;;;;20.833125
62107;BMP280;48087;32.600;-97.100;2023-03-01T07:04:48;;;;20.777570000000004
62107;BMP280;48087;32.600;-97.100;2023-03-01T07:09:50;;;;20.777570000000004
62107;BMP280;48087;32.600;-97.100;2023-03-01T07:14:55;;;;20.777570000000004
62107;BMP280;48087;32.600;-97.100;2023-03-01T07:19:58;;;;20.66646
62107;BMP280;48087;32.600;-97.100;2023-03-01T07:25:03;;;;20.610904999999995
62107;BMP280;48087;32.600;-97.100;2023-03-01T07:30:07;;;;20.55535
62107;BMP280;48087;32.600;-97.100;2023-03-01T07:35:12;;;;20.444239999999997
62107;BMP280;48087;32.600;-97.100;2023-03-01T07:40:14;;;;20.388685000000002
62107;BMP280;48087;32.600;-97.100;2023-03-01T07:45:18;;;;20.277575
62107;BMP280;48087;32.600;-97.100;2023-03-01T07:50:22;;;;20.277575
62107;BMP280;48087;32.600;-97.100;2023-03-01T07:55:27;;;;20.277575
62107;BMP280;48087;32.600;-97.100;2023-03-01T08:00:31;;;;20.277575
62107;BMP280;48087;32.600;-97.100;2023-03-01T08:05:35;;;;20.222020000000004
62107;BMP280;48087;32.600;-97.100;2023-03-01T08:10:39;;;;20.11091
62107;BMP280;48087;32.600;-97.100;2023-03-01T08:15:43;;;;20.11091
62107;BMP280;48087;32.600;-97.100;2023-03-01T08:20:47;;;;20.11091
62107;BMP280;48087;32.600;-97.100;2023-03-01T08:25:51;;;;20.055354999999995
62107;BMP280;48087;32.600;-97.100;2023-03-01T08:30:55;;;;19.9998
62107;BMP280;48087;32.600;-97.100;2023-03-01T08:36:03;;;;19.9998
62107;BMP280;48087;32.600;-97.100;2023-03-01T08:41:02;;;;19.9998
62107;BMP280;48087;32.600;-97.100;2023-03-01T08:46:07;;;;20.055354999999995
62107;BMP280;48087;32.600;-97.100;2023-03-01T08:51:11;;;;20.055354999999995
62107;BMP280;48087;32.600;-97.100;2023-03-01T08:56:14;;;;19.9998
62107;BMP280;48087;32.600;-97.100;2023-03-01T09:01:19;;;;19.9998
62107;BMP280;48087;32.600;-97.100;2023-03-01T09:06:22;;;;19.944245000000002
62107;BMP280;48087;32.600;-97.100;2023-03-01T09:11:27;;;;19.888689999999997
62107;BMP280;48087;32.600;-97.100;2023-03-01T09:16:30;;;;19.944245000000002
62107;BMP280;48087;32.600;-97.100;2023-03-01T09:21:35;;;;19.944245000000002
62107;BMP280;48087;32.600;-97.100;2023-03-01T09:26:38;;;;19.888689999999997
62107;BMP280;48087;32.600;-97.100;2023-03-01T09:31:43;;;;19.888689999999997
62107;BMP280;48087;32.600;-97.100;2023-03-01T09:36:46;;;;19.944245000000002
62107;BMP280;48087;32.600;-97.100;2023-03-01T09:41:54;;;;19.944245000000002
62107;BMP280;48087;32.600;-97.100;2023-03-01T09:46:54;;;;19.9998
62107;BMP280;48087;32.600;-97.100;2023-03-01T09:52:00;;;;20.055354999999995
62107;BMP280;48087;32.600;-97.100;2023-03-01T09:57:06;;;;20.055354999999995
62107;BMP280;48087;32.600;-97.100;2023-03-01T10:02:12;;;;19.9998
62107;BMP280;48087;32.600;-97.100;2023-03-01T10:07:15;;;;19.9998
62107;BMP280;48087;32.600;-97.100;2023-03-01T10:12:15;;;;19.9998
62107;BMP280;48087;32.600;-97.100;2023-03-01T10:17:19;;;;19.9998
62107;BMP280;48087;32.600;-97.100;2023-03-01T10:22:24;;;;19.9998
62107;BMP280;48087;32.600;-97.100;2023-03-01T10:27:28;;;;20.055354999999995
62107;BMP280;48087;32.600;-97.100;2023-03-01T10:32:31;;;;20.11091
62107;BMP280;48087;32.600;-97.100;2023-03-01T10:37:34;;;;20.055354999999995
62107;BMP280;48087;32.600;-97.100;2023-03-01T10:42:39;;;;19.9998
62107;BMP280;48087;32.600;-97.100;2023-03-01T10:47:42;;;;19.888689999999997
62107;BMP280;48087;32.600;-97.100;2023-03-01T10:52:56;;;;19.833135000000002
62107;BMP280;48087;32.600;-97.100;2023-03-01T10:57:50;;;;19.833135000000002
62107;BMP280;48087;32.600;-97.100;2023-03-01T11:03:05;;;;19.833135000000002
62107;BMP280;48087;32.600;-97.100;2023-03-01T11:07:58;;;;19.777579999999997
62107;BMP280;48087;32.600;-97.100;2023-03-01T11:13:06;;;;19.777579999999997
62107;BMP280;48087;32.600;-97.100;2023-03-01T11:18:05;;;;19.610915
62107;BMP280;48087;32.600;-97.100;2023-03-01T11:23:12;;;;19.499804999999995
62107;BMP280;48087;32.600;-97.100;2023-03-01T11:28:15;;;;19.499804999999995
62107;BMP280;48087;32.600;-97.100;2023-03-01T11:33:20;;;;19.44425
62107;BMP280;48087;32.600;-97.100;2023-03-01T11:38:24;;;;19.388695000000002
62107;BMP280;48087;32.600;-97.100;2023-03-01T11:43:28;;;;19.388695000000002
62107;BMP280;48087;32.600;-97.100;2023-03-01T11:48:34;;;;19.277585000000002
62107;BMP280;48087;32.600;-97.100;2023-03-01T11:53:38;;;;19.277585000000002
62107;BMP280;48087;32.600;-97.100;2023-03-01T11:58:42;;;;19.222029999999997
62107;BMP280;48087;32.600;-97.100;2023-03-01T12:03:47;;;;19.277585000000002
62107;BMP280;48087;32.600;-97.100;2023-03-01T12:08:47;;;;19.222029999999997
62107;BMP280;48087;32.600;-97.100;2023-03-01T12:14:25;;;;19.055365
62107;BMP280;48087;32.600;-97.100;2023-03-01T12:19:01;;;;18.99981
62107;BMP280;48087;32.600;-97.100;2023-03-01T12:24:57;;;;19.055365
62107;BMP280;48087;32.600;-97.100;2023-03-01T12:29:07;;;;18.944254999999995
62107;BMP280;48087;32.600;-97.100;2023-03-01T12:34:09;;;;18.944254999999995
62107;BMP280;48087;32.600;-97.100;2023-03-01T12:39:15;;;;18.944254999999995
62107;BMP280;48087;32.600;-97.100;2023-03-01T12:44:33;;;;19.055365
62107;BMP280;48087;32.600;-97.100;2023-03-01T12:49:36;;;;19.055365
62107;BMP280;48087;32.600;-97.100;2023-03-01T12:54:37;;;;19.110920000000004
62107;BMP280;48087;32.600;-97.100;2023-03-01T12:59:43;;;;19.110920000000004
62107;BMP280;48087;32.600;-97.100;2023-03-01T13:04:52;;;;19.388695000000002
62107;BMP280;48087;32.600;-97.100;2023-03-01T13:09:51;;;;19.388695000000002
62107;BMP280;48087;32.600;-97.100;2023-03-01T13:14:54;;;;19.333139999999997
62107;BMP280;48087;32.600;-97.100;2023-03-01T13:19:58;;;;18.833145000000002
62107;BMP280;48087;32.600;-97.100;2023-03-01T13:25:10;;;;17.999820000000003
62107;BMP280;48087;32.600;-97.100;2023-03-01T13:30:22;;;;17.499825
62107;BMP280;48087;32.600;-97.100;2023-03-01T13:35:40;;;;17.33316
62107;BMP280;48087;32.600;-97.100;2023-03-01T13:41:46;;;;17.277605
62107;BMP280;48087;32.600;-97.100;2023-03-01T13:45:20;;;;17.33316
62107;BMP280;48087;32.600;-97.100;2023-03-01T13:50:23;;;;17.33316
62107;BMP280;48087;32.600;-97.100;2023-03-01T13:55:29;;;;16.944275
62107;BMP280;48087;32.600;-97.100;2023-03-01T14:00:31;;;;14.99985
62107;BMP280;48087;32.600;-97.100;2023-03-01T14:05:34;;;;14.499855
62107;BMP280;48087;32.600;-97.100;2023-03-01T14:10:41;;;;14.333189999999998
62107;BMP280;48087;32.600;-97.100;2023-03-01T14:15:42;;;;14.277635000000002
62107;BMP280;48087;32.600;-97.100;2023-03-01T14:20:45;;;;14.333189999999998
62107;BMP280;48087;32.600;-97.100;2023-03-01T14:25:51;;;;14.388744999999998
62107;BMP280;48087;32.600;-97.100;2023-03-01T14:30:54;;;;14.555410000000002
62107;BMP280;48087;32.600;-97.100;2023-03-01T14:35:59;;;;14.888739999999999
62107;BMP280;48087;32.600;-97.100;2023-03-01T14:41:02;;;;15.555399999999999
62107;BMP280;48087;32.600;-97.100;2023-03-01T14:46:05;;;;15.88873
62107;BMP280;48087;32.600;-97.100;2023-03-01T14:51:09;;;;16.222060000000003
62107;BMP280;48087;32.600;-97.100;2023-03-01T14:56:15;;;;16.55539
62107;BMP280;48087;32.600;-97.100;2023-03-01T15:01:17;;;;16.99983
62107;BMP280;48087;32.600;-97.100;2023-03-01T15:06:22;;;;17.277605
62107;BMP280;48087;32.600;-97.100;2023-03-01T15:11:26;;;;17.44427
62107;BMP280;48087;32.600;-97.100;2023-03-01T15:16:46;;;;17.499825
62107;BMP280;48087;32.600;-97.100;2023-03-01T15:21:49;;;;17.722044999999998
62107;BMP280;48087;32.600;-97.100;2023-03-01T15:26:55;;;;17.33316
62107;BMP280;48087;32.600;-97.100;2023-03-01T15:31:58;;;;17.277605
62107;BMP280;48087;32.600;-97.100;2023-03-01T15:37:02;;;;17.22205
62107;BMP280;48087;32.600;-97.100;2023-03-01T15:42:06;;;;17.11094
62107;BMP280;48087;32.600;-97.100;2023-03-01T15:47:22;;;;17.22205
62107;BMP280;48087;32.600;-97.100;2023-03-01T15:52:15;;;;17.055385
62107;BMP280;48087;32.600;-97.100;2023-03-01T15:57:17;;;;17.055385
62107;BMP280;48087;32.600;-97.100;2023-03-01T16:02:21;;;;17.055385
62107;BMP280;48087;32.600;-97.100;2023-03-01T16:07:25;;;;17.11094
62107;BMP280;48087;32.600;-97.100;2023-03-01T16:12:28;;;;17.11094
62107;BMP280;48087;32.600;-97.100;2023-03-01T16:17:33;;;;17.22205
62107;BMP280;48087;32.600;-97.100;2023-03-01T16:22:37;;;;17.166494999999998
62107;BMP280;48087;32.600;-97.100;2023-03-01T16:27:42;;;;17.166494999999998
62107;BMP280;48087;32.600;-97.100;2023-03-01T16:32:45;;;;17.11094
62107;BMP280;48087;32.600;-97.100;2023-03-01T16:37:49;;;;17.11094
62107;BMP280;48087;32.600;-97.100;2023-03-01T16:42:52;;;;17.22205
62107;BMP280;48087;32.600;-97.100;2023-03-01T16:47:57;;;;17.166494999999998
62107;BMP280;48087;32.600;-97.100;2023-03-01T16:53:01;;;;17.166494999999998
62107;BMP280;48087;32.600;-97.100;2023-03-01T16:58:04;;;;17.166494999999998
62107;BMP280;48087;32.600;-97.100;2023-03-01T17:03:08;;;;17.055385
62107;BMP280;48087;32.600;-97.100;2023-03-01T17:08:13;;;;17.11094
62107;BMP280;48087;32.600;-97.100;2023-03-01T17:13:16;;;;17.055385
62107;BMP280;48087;32.600;-97.100;2023-03-01T17:18:21;;;;17.055385
62107;BMP280;48087;32.600;-97.100;2023-03-01T17:23:25;;;;17.055385
62107;BMP280;48087;32.600;-97.100;2023-03-01T17:28:29;;;;17.055385
62107;BMP280;48087;32.600;-97.100;2023-03-01T17:33:32;;;;17.166494999999998
62107;BMP280;48087;32.600;-97.100;2023-03-01T17:38:37;;;;17.22205
62107;BMP280;48087;32.600;-97.100;2023-03-01T17:43:40;;;;17.22205
62107;BMP280;48087;32.600;-97.100;2023-03-01T17:48:45;;;;17.22205
62107;BMP280;48087;32.600;-97.100;2023-03-01T17:53:48;;;;17.166494999999998
62107;BMP280;48087;32.600;-97.100;2023-03-01T17:58:53;;;;17.44427
62107;BMP280;48087;32.600;-97.100;2023-03-01T18:03:56;;;;17.610935
62107;BMP280;48087;32.600;-97.100;2023-03-01T18:09:01;;;;17.833154999999998
62107;BMP280;48087;32.600;-97.100;2023-03-01T18:14:04;;;;17.999820000000003
62107;BMP280;48087;32.600;-97.100;2023-03-01T18:19:09;;;;18.388704999999998
62107;BMP280;48087;32.600;-97.100;2023-03-01T18:24:12;;;;18.555370000000003
62107;BMP280;48087;32.600;-97.100;2023-03-01T18:29:16;;;;18.777589999999996
62107;BMP280;48087;32.600;-97.100;2023-03-01T18:34:20;;;;18.777589999999996
62107;BMP280;48087;32.600;-97.100;2023-03-01T18:39:25;;;;19.055365
62107;BMP280;48087;32.600;-97.100;2023-03-01T18:44:28;;;;18.99981
62107;BMP280;48087;32.600;-97.100;2023-03-01T18:49:33;;;;18.8887
62107;BMP280;48087;32.600;-97.100;2023-03-01T18:54:36;;;;18.833145000000002
62107;BMP280;48087;32.600;-97.100;2023-03-01T18:59:41;;;;19.055365
62107;BMP280;48087;32.600;-97.100;2023-03-01T19:04:44;;;;18.944254999999995
62107;BMP280;48087;32.600;-97.100;2023-03-01T19:09:49;;;;18.99981
62107;BMP280;48087;32.600;-97.100;2023-03-01T19:14:53;;;;19.055365
62107;BMP280;48087;32.600;-97.100;2023-03-01T19:19:56;;;;19.110920000000004
62107;BMP280;48087;32.600;-97.100;2023-03-01T19:25:01;;;;18.99981
62107;BMP280;48087;32.600;-97.100;2023-03-01T19:30:04;;;;18.99981
62107;BMP280;48087;32.600;-97.100;2023-03-01T19:35:09;;;;19.055365
62107;BMP280;48087;32.600;-97.100;2023-03-01T19:40:12;;;;19.055365
62107;BMP280;48087;32.600;-97.100;2023-03-01T19:45:16;;;;19.055365
62107;BMP280;48087;32.600;-97.100;2023-03-01T19:50:37;;;;19.222029999999997
62107;BMP280;48087;32.600;-97.100;2023-03-01T19:55:41;;;;19.333139999999997
62107;BMP280;48087;32.600;-97.100;2023-03-01T20:00:45;;;;19.333139999999997
62107;BMP280;48087;32.600;-97.100;2023-03-01T20:05:49;;;;19.277585000000002
62107;BMP280;48087;32.600;-97.100;2023-03-01T20:10:59;;;;19.277585000000002
62107;BMP280;48087;32.600;-97.100;2023-03-01T20:15:57;;;;19.277585000000002
62107;BMP280;48087;32.600;-97.100;2023-03-01T20:21:01;;;;19.222029999999997
62107;BMP280;48087;32.600;-97.100;2023-03-01T20:26:05;;;;19.166475
62107;BMP280;48087;32.600;-97.100;2023-03-01T20:31:10;;;;19.055365
62107;BMP280;48087;32.600;-97.100;2023-03-01T20:36:13;;;;18.833145000000002
62107;BMP280;48087;32.600;-97.100;2023-03-01T20:41:16;;;;18.833145000000002
62107;BMP280;48087;32.600;-97.100;2023-03-01T20:46:21;;;;19.110920000000004
62107;BMP280;48087;32.600;-97.100;2023-03-01T20:51:24;;;;19.222029999999997
62107;BMP280;48087;32.600;-97.100;2023-03-01T20:56:28;;;;19.277585000000002
62107;BMP280;48087;32.600;-97.100;2023-03-01T21:01:32;;;;19.222029999999997
62107;BMP280;48087;32.600;-97.100;2023-03-01T21:06:36;;;;19.222029999999997
62107;BMP280;48087;32.600;-97.100;2023-03-01T21:11:41;;;;19.222029999999997
62107;BMP280;48087;32.600;-97.100;2023-03-01T21:16:43;;;;19.277585000000002
62107;BMP280;48087;32.600;-97.100;2023-03-01T21:21:49;;;;19.333139999999997
62107;BMP280;48087;32.600;-97.100;2023-03-01T21:26:51;;;;19.388695000000002
62107;BMP280;48087;32.600;-97.100;2023-03-01T21:31:56;;;;19.44425
62107;BMP280;48087;32.600;-97.100;2023-03-01T21:36:59;;;;19.499804999999995
62107;BMP280;48087;32.600;-97.100;2023-03-01T21:42:05;;;;19.55536
62107;BMP280;48087;32.600;-97.100;2023-03-01T21:47:07;;;;19.610915
62107;BMP280;48087;32.600;-97.100;2023-03-01T21:52:13;;;;19.610915
62107;BMP280;48087;32.600;-97.100;2023-03-01T21:57:15;;;;19.666470000000004
62107;BMP280;48087;32.600;-97.100;2023-03-01T22:02:20;;;;19.55536
62107;BMP280;48087;32.600;-97.100;2023-03-01T22:07:23;;;;19.722025
62107;BMP280;48087;32.600;-97.100;2023-03-01T22:12:28;;;;19.777579999999997
62107;BMP280;48087;32.600;-97.100;2023-03-01T22:17:31;;;;19.777579999999997
62107;BMP280;48087;32.600;-97.100;2023-03-01T22:22:36;;;;19.777579999999997
62107;BMP280;48087;32.600;-97.100;2023-03-01T22:27:39;;;;19.722025
62107;BMP280;48087;32.600;-97.100;2023-03-01T22:32:44;;;;19.666470000000004
62107;BMP280;48087;32.600;-97.100;2023-03-01T22:37:47;;;;19.55536
62107;BMP280;48087;32.600;-97.100;2023-03-01T22:42:53;;;;19.499804999999995
62107;BMP280;48087;32.600;-97.100;2023-03-01T22:47:55;;;;19.44425
62107;BMP280;48087;32.600;-97.100;2023-03-01T22:52:59;;;;19.499804999999995
62107;BMP280;48087;32.600;-97.100;2023-03-01T22:58:03;;;;19.44425
62107;BMP280;48087;32.600;-97.100;2023-03-01T23:03:08;;;;19.44425
62107;BMP280;48087;32.600;-97.100;2023-03-01T23:08:11;;;;19.388695000000002
62107;BMP280;48087;32.600;-97.100;2023-03-01T23:13:17;;;;19.277585000000002
62107;BMP280;48087;32.600;-97.100;2023-03-01T23:18:19;;;;19.222029999999997
62107;BMP280;48087;32.600;-97.100;2023-03-01T23:23:24;;;;19.166475
62107;BMP280;48087;32.600;-97.100;2023-03-01T23:28:28;;;;19.110920000000004
62107;BMP280;48087;32.600;-97.100;2023-03-01T23:33:33;;;;19.055365
62107;BMP280;48087;32.600;-97.100;2023-03-01T23:38:35;;;;18.944254999999995
62107;BMP280;48087;32.600;-97.100;2023-03-01T23:43:42;;;;18.8887
62107;BMP280;48087;32.600;-97.100;2023-03-01T23:48:43;;;;18.777589999999996
62107;BMP280;48087;32.600;-97.100;2023-03-01T23:53:49;;;;18.722035
62107;BMP280;48087;32.600;-97.100;2023-03-01T23:58:52;;;;18.722035
